sensor_id;sensor_type;location;lat;lon;timestamp;noise_LAeq;noise_LA_min;noise_LA_max;noise_LA01;noise_LA95
68599;Laerm;18038;50.166;18.908;2024-03-08T00:00:26;35.78;31.57;46.17;;
68599;Laerm;18038;50.166;18.908;2024-03-08T00:03:33;32.45;31.40;35.33;;
68599;Laerm;18038;50.166;18.908;2024-03-08T00:06:41;32.09;31.31;36.52;;
68599;Laerm;18038;50.166;18.908;2024-03-08T00:09:52;32.52;31.47;40.85;;
68599;Laerm;18038;50.166;18.908;2024-03-08T00:13:00;33.62;31.41;47.07;;
68599;Laerm;18038;50.166;18.908;2024-03-08T00:16:08;32.26;31.53;35.30;;
68599;Laerm;18038;50.166;18.908;2024-03-08T00:19:17;33.79;31.37;46.14;;
68599;Laerm;18038;50.166;18.908;2024-03-08T00:22:24;31.97;31.25;33.15;;
68599;Laerm;18038;50.166;18.908;2024-03-08T00:25:34;32.45;31.62;40.50;;
68599;Laerm;18038;50.166;18.908;2024-03-08T00:28:43;32.30;31.45;41.81;;
68599;Laerm;18038;50.166;18.908;2024-03-08T00:31:51;32.31;31.37;42.10;;
68599;Laerm;18038;50.166;18.908;2024-03-08T00:34:59;32.33;31.44;42.36;;
68599;Laerm;18038;50.166;18.908;2024-03-08T00:38:07;33.42;31.49;44.96;;
68599;Laerm;18038;50.166;18.908;2024-03-08T00:41:16;34.47;31.63;46.18;;
68599;Laerm;18038;50.166;18.908;2024-03-08T00:44:24;32.09;31.46;40.07;;
68599;Laerm;18038;50.166;18.908;2024-03-08T00:47:31;32.16;31.35;39.30;;
68599;Laerm;18038;50.166;18.908;2024-03-08T00:50:39;34.75;31.47;50.43;;
68599;Laerm;18038;50.166;18.908;2024-03-08T00:53:49;32.81;31.55;43.93;;
68599;Laerm;18038;50.166;18.908;2024-03-08T00:57:00;33.03;31.42;46.39;;
68599;Laerm;18038;50.166;18.908;2024-03-08T01:00:10;35.17;31.57;46.23;;
68599;Laerm;18038;50.166;18.908;2024-03-08T01:03:19;36.05;31.68;51.06;;
68599;Laerm;18038;50.166;18.908;2024-03-08T01:06:26;35.51;31.65;53.72;;
68599;Laerm;18038;50.166;18.908;2024-03-08T01:09:35;34.81;32.19;51.72;;
68599;Laerm;18038;50.166;18.908;2024-03-08T01:12:45;36.41;31.87;48.09;;
68599;Laerm;18038;50.166;18.908;2024-03-08T01:15:53;34.94;31.49;50.53;;
68599;Laerm;18038;50.166;18.908;2024-03-08T01:19:00;34.38;31.49;47.58;;
68599;Laerm;18038;50.166;18.908;2024-03-08T01:22:08;33.10;31.53;39.80;;
68599;Laerm;18038;50.166;18.908;2024-03-08T01:25:16;33.69;31.38;46.85;;
68599;Laerm;18038;50.166;18.908;2024-03-08T01:28:26;35.01;31.44;54.84;;
68599;Laerm;18038;50.166;18.908;2024-03-08T01:31:33;36.81;31.47;55.05;;
68599;Laerm;18038;50.166;18.908;2024-03-08T01:34:42;35.42;31.65;50.95;;
68599;Laerm;18038;50.166;18.908;2024-03-08T01:37:49;33.00;31.41;46.11;;
68599;Laerm;18038;50.166;18.908;2024-03-08T01:40:57;34.85;31.35;49.37;;
68599;Laerm;18038;50.166;18.908;2024-03-08T01:44:07;39.78;31.48;50.64;;
68599;Laerm;18038;50.166;18.908;2024-03-08T01:47:15;32.41;31.54;41.31;;
68599;Laerm;18038;50.166;18.908;2024-03-08T01:50:22;34.77;31.57;49.20;;
68599;Laerm;18038;50.166;18.908;2024-03-08T01:53:30;34.57;31.45;49.65;;
68599;Laerm;18038;50.166;18.908;2024-03-08T01:56:39;36.13;31.70;53.41;;
68599;Laerm;18038;50.166;18.908;2024-03-08T01:59:51;33.90;31.65;47.55;;
68599;Laerm;18038;50.166;18.908;2024-03-08T02:03:00;32.29;31.52;40.51;;
68599;Laerm;18038;50.166;18.908;2024-03-08T02:06:09;32.28;31.49;42.10;;
68599;Laerm;18038;50.166;18.908;2024-03-08T02:09:19;33.29;31.36;45.82;;
68599;Laerm;18038;50.166;18.908;2024-03-08T02:12:27;33.16;31.22;51.02;;
68599;Laerm;18038;50.166;18.908;2024-03-08T02:15:56;34.26;31.65;45.32;;
68599;Laerm;18038;50.166;18.908;2024-03-08T02:19:04;35.06;31.44;51.00;;
68599;Laerm;18038;50.166;18.908;2024-03-08T02:22:16;34.44;31.50;47.74;;
68599;Laerm;18038;50.166;18.908;2024-03-08T02:25:25;33.95;31.35;47.72;;
68599;Laerm;18038;50.166;18.908;2024-03-08T02:28:33;36.98;31.32;55.49;;
68599;Laerm;18038;50.166;18.908;2024-03-08T02:31:41;34.44;31.53;50.22;;
68599;Laerm;18038;50.166;18.908;2024-03-08T02:34:48;36.31;31.67;55.48;;
68599;Laerm;18038;50.166;18.908;2024-03-08T02:37:59;33.38;31.38;45.00;;
68599;Laerm;18038;50.166;18.908;2024-03-08T02:41:07;33.81;31.47;45.54;;
68599;Laerm;18038;50.166;18.908;2024-03-08T02:44:17;36.16;31.74;53.70;;
68599;Laerm;18038;50.166;18.908;2024-03-08T02:47:25;35.73;31.42;51.62;;
68599;Laerm;18038;50.166;18.908;2024-03-08T02:50:36;36.51;31.46;51.09;;
68599;Laerm;18038;50.166;18.908;2024-03-08T02:53:47;36.75;31.72;49.81;;
68599;Laerm;18038;50.166;18.908;2024-03-08T02:56:56;33.80;31.75;47.26;;
68599;Laerm;18038;50.166;18.908;2024-03-08T03:00:06;33.30;31.74;46.25;;
68599;Laerm;18038;50.166;18.908;2024-03-08T03:03:14;33.25;31.54;42.14;;
68599;Laerm;18038;50.166;18.908;2024-03-08T03:06:22;33.95;31.54;45.67;;
68599;Laerm;18038;50.166;18.908;2024-03-08T03:09:33;34.02;31.76;49.38;;
68599;Laerm;18038;50.166;18.908;2024-03-08T03:12:40;36.86;32.03;52.44;;
68599;Laerm;18038;50.166;18.908;2024-03-08T03:15:48;34.75;31.74;49.29;;
68599;Laerm;18038;50.166;18.908;2024-03-08T03:18:55;32.87;31.63;43.43;;
68599;Laerm;18038;50.166;18.908;2024-03-08T03:22:06;35.61;31.94;50.73;;
68599;Laerm;18038;50.166;18.908;2024-03-08T03:25:18;36.50;32.01;48.05;;
68599;Laerm;18038;50.166;18.908;2024-03-08T03:28:30;33.31;31.82;43.08;;
68599;Laerm;18038;50.166;18.908;2024-03-08T03:31:37;36.01;31.68;46.70;;
68599;Laerm;18038;50.166;18.908;2024-03-08T03:34:45;35.49;31.56;47.49;;
68599;Laerm;18038;50.166;18.908;2024-03-08T03:37:52;35.06;31.69;45.65;;
68599;Laerm;18038;50.166;18.908;2024-03-08T03:41:16;36.46;31.89;48.80;;
68599;Laerm;18038;50.166;18.908;2024-03-08T03:44:23;39.33;32.12;55.31;;
68599;Laerm;18038;50.166;18.908;2024-03-08T03:47:31;39.62;31.69;57.56;;
68599;Laerm;18038;50.166;18.908;2024-03-08T03:50:38;37.87;31.85;51.52;;
68599;Laerm;18038;50.166;18.908;2024-03-08T03:53:47;38.05;32.26;52.46;;
68599;Laerm;18038;50.166;18.908;2024-03-08T03:56:56;37.83;32.12;51.91;;
68599;Laerm;18038;50.166;18.908;2024-03-08T04:00:07;36.18;32.11;47.94;;
68599;Laerm;18038;50.166;18.908;2024-03-08T04:03:17;37.08;32.23;49.80;;
68599;Laerm;18038;50.166;18.908;2024-03-08T04:06:25;38.09;32.09;48.88;;
68599;Laerm;18038;50.166;18.908;2024-03-08T04:09:35;39.26;32.90;50.56;;
68599;Laerm;18038;50.166;18.908;2024-03-08T04:12:45;38.54;32.77;47.86;;
68599;Laerm;18038;50.166;18.908;2024-03-08T04:15:53;39.55;32.96;48.57;;
68599;Laerm;18038;50.166;18.908;2024-03-08T04:19:01;39.33;33.19;49.05;;
68599;Laerm;18038;50.166;18.908;2024-03-08T04:22:09;39.57;32.73;49.50;;
68599;Laerm;18038;50.166;18.908;2024-03-08T04:25:17;43.62;33.72;66.33;;
68599;Laerm;18038;50.166;18.908;2024-03-08T04:28:27;41.18;33.26;54.95;;
68599;Laerm;18038;50.166;18.908;2024-03-08T04:31:36;39.42;32.94;49.80;;
68599;Laerm;18038;50.166;18.908;2024-03-08T04:34:43;40.83;33.15;50.65;;
68599;Laerm;18038;50.166;18.908;2024-03-08T04:37:51;41.27;33.50;51.76;;
68599;Laerm;18038;50.166;18.908;2024-03-08T04:40:59;40.69;33.59;50.15;;
68599;Laerm;18038;50.166;18.908;2024-03-08T04:44:11;40.15;33.33;49.36;;
68599;Laerm;18038;50.166;18.908;2024-03-08T04:47:19;40.65;33.11;48.68;;
68599;Laerm;18038;50.166;18.908;2024-03-08T04:50:27;39.17;32.61;50.34;;
68599;Laerm;18038;50.166;18.908;2024-03-08T04:53:35;40.58;32.96;49.06;;
68599;Laerm;18038;50.166;18.908;2024-03-08T04:56:44;42.05;33.44;55.25;;
68599;Laerm;18038;50.166;18.908;2024-03-08T04:59:54;39.92;33.14;48.61;;
68599;Laerm;18038;50.166;18.908;2024-03-08T05:03:04;40.78;32.30;55.34;;
68599;Laerm;18038;50.166;18.908;2024-03-08T05:06:11;39.11;32.79;48.54;;
68599;Laerm;18038;50.166;18.908;2024-03-08T05:09:19;39.45;32.80;48.65;;
68599;Laerm;18038;50.166;18.908;2024-03-08T05:12:28;40.90;32.79;49.86;;
68599;Laerm;18038;50.166;18.908;2024-03-08T05:15:39;40.66;33.24;48.40;;
68599;Laerm;18038;50.166;18.908;2024-03-08T05:18:46;41.55;34.26;49.30;;
68599;Laerm;18038;50.166;18.908;2024-03-08T05:21:54;41.13;32.99;48.70;;
68599;Laerm;18038;50.166;18.908;2024-03-08T05:25:02;41.04;32.72;47.78;;
68599;Laerm;18038;50.166;18.908;2024-03-08T05:28:10;40.01;32.92;51.07;;
68599;Laerm;18038;50.166;18.908;2024-03-08T05:31:22;41.53;33.19;55.71;;
68599;Laerm;18038;50.166;18.908;2024-03-08T05:34:30;41.23;33.98;52.04;;
68599;Laerm;18038;50.166;18.908;2024-03-08T05:37:38;43.40;33.02;56.23;;
68599;Laerm;18038;50.166;18.908;2024-03-08T05:40:47;42.22;33.71;50.77;;
68599;Laerm;18038;50.166;18.908;2024-03-08T05:43:55;41.72;34.01;54.77;;
68599;Laerm;18038;50.166;18.908;2024-03-08T05:47:06;41.88;33.94;50.28;;
68599;Laerm;18038;50.166;18.908;2024-03-08T05:50:14;41.45;34.17;49.03;;
68599;Laerm;18038;50.166;18.908;2024-03-08T05:53:22;41.80;34.31;49.41;;
68599;Laerm;18038;50.166;18.908;2024-03-08T05:56:29;41.15;33.47;53.41;;
68599;Laerm;18038;50.166;18.908;2024-03-08T05:59:37;42.37;33.95;50.11;;
68599;Laerm;18038;50.166;18.908;2024-03-08T06:02:47;41.96;34.18;51.73;;
68599;Laerm;18038;50.166;18.908;2024-03-08T06:05:56;42.55;34.34;60.85;;
68599;Laerm;18038;50.166;18.908;2024-03-08T06:09:03;41.64;33.76;49.14;;
68599;Laerm;18038;50.166;18.908;2024-03-08T06:12:17;41.69;33.24;51.07;;
68599;Laerm;18038;50.166;18.908;2024-03-08T06:15:24;42.44;34.91;54.69;;
68599;Laerm;18038;50.166;18.908;2024-03-08T06:18:35;42.43;34.64;53.89;;
68599;Laerm;18038;50.166;18.908;2024-03-08T06:21:43;41.68;33.49;48.21;;
68599;Laerm;18038;50.166;18.908;2024-03-08T06:24:51;42.49;33.54;52.28;;
68599;Laerm;18038;50.166;18.908;2024-03-08T06:27:59;41.05;34.26;50.62;;
68599;Laerm;18038;50.166;18.908;2024-03-08T06:31:07;42.38;33.89;57.41;;
68599;Laerm;18038;50.166;18.908;2024-03-08T06:34:17;46.79;35.47;64.90;;
68599;Laerm;18038;50.166;18.908;2024-03-08T06:37:25;57.96;38.26;61.94;;
68599;Laerm;18038;50.166;18.908;2024-03-08T06:40:32;58.97;40.92;63.78;;
68599;Laerm;18038;50.166;18.908;2024-03-08T06:43:41;57.81;39.55;65.35;;
68599;Laerm;18038;50.166;18.908;2024-03-08T06:46:49;54.78;36.47;63.16;;
68599;Laerm;18038;50.166;18.908;2024-03-08T06:50:01;45.55;35.42;58.40;;
68599;Laerm;18038;50.166;18.908;2024-03-08T06:53:08;50.62;34.06;57.13;;
68599;Laerm;18038;50.166;18.908;2024-03-08T06:56:16;43.88;34.66;58.79;;
68599;Laerm;18038;50.166;18.908;2024-03-08T06:59:23;42.37;34.56;55.49;;
68599;Laerm;18038;50.166;18.908;2024-03-08T07:02:31;42.17;35.16;53.91;;
68599;Laerm;18038;50.166;18.908;2024-03-08T07:05:42;42.84;34.50;60.15;;
68599;Laerm;18038;50.166;18.908;2024-03-08T07:08:51;59.47;36.52;65.47;;
68599;Laerm;18038;50.166;18.908;2024-03-08T07:11:58;61.09;39.90;65.26;;
68599;Laerm;18038;50.166;18.908;2024-03-08T07:15:07;58.10;36.66;66.28;;
68599;Laerm;18038;50.166;18.908;2024-03-08T07:18:18;51.09;35.21;66.12;;
68599;Laerm;18038;50.166;18.908;2024-03-08T07:21:30;44.91;33.65;59.40;;
68599;Laerm;18038;50.166;18.908;2024-03-08T07:24:37;42.15;34.30;56.59;;
68599;Laerm;18038;50.166;18.908;2024-03-08T07:28:01;43.29;34.14;58.54;;
68599;Laerm;18038;50.166;18.908;2024-03-08T07:31:08;61.34;34.26;67.64;;
68599;Laerm;18038;50.166;18.908;2024-03-08T07:34:26;62.28;46.00;67.58;;
68599;Laerm;18038;50.166;18.908;2024-03-08T07:37:38;50.33;34.67;60.83;;
68599;Laerm;18038;50.166;18.908;2024-03-08T07:40:46;59.02;37.82;66.79;;
68599;Laerm;18038;50.166;18.908;2024-03-08T07:43:53;60.18;36.12;66.39;;
68599;Laerm;18038;50.166;18.908;2024-03-08T07:47:02;51.10;41.12;60.05;;
68599;Laerm;18038;50.166;18.908;2024-03-08T07:50:10;52.41;34.40;66.21;;
68599;Laerm;18038;50.166;18.908;2024-03-08T07:53:24;42.40;34.90;54.12;;
68599;Laerm;18038;50.166;18.908;2024-03-08T07:56:31;41.56;34.37;58.99;;
68599;Laerm;18038;50.166;18.908;2024-03-08T07:59:42;43.37;34.00;57.25;;
68599;Laerm;18038;50.166;18.908;2024-03-08T08:02:49;41.13;33.99;54.70;;
68599;Laerm;18038;50.166;18.908;2024-03-08T08:05:57;41.82;34.18;58.60;;
68599;Laerm;18038;50.166;18.908;2024-03-08T08:09:08;40.40;34.28;53.99;;
68599;Laerm;18038;50.166;18.908;2024-03-08T08:12:19;58.57;36.64;65.58;;
68599;Laerm;18038;50.166;18.908;2024-03-08T08:15:26;53.50;35.95;59.68;;
68599;Laerm;18038;50.166;18.908;2024-03-08T08:18:35;53.30;35.30;59.41;;
68599;Laerm;18038;50.166;18.908;2024-03-08T08:21:43;57.75;35.89;63.66;;
68599;Laerm;18038;50.166;18.908;2024-03-08T08:24:54;50.60;34.11;61.37;;
68599;Laerm;18038;50.166;18.908;2024-03-08T08:28:01;41.93;33.54;55.66;;
68599;Laerm;18038;50.166;18.908;2024-03-08T08:31:10;44.63;34.17;63.02;;
68599;Laerm;18038;50.166;18.908;2024-03-08T08:34:17;47.14;34.88;69.17;;
68599;Laerm;18038;50.166;18.908;2024-03-08T08:37:29;44.69;34.47;60.47;;
68599;Laerm;18038;50.166;18.908;2024-03-08T08:40:38;51.47;34.85;68.36;;
68599;Laerm;18038;50.166;18.908;2024-03-08T08:43:47;44.35;34.65;61.54;;
68599;Laerm;18038;50.166;18.908;2024-03-08T08:47:11;49.03;34.74;65.16;;
68599;Laerm;18038;50.166;18.908;2024-03-08T08:50:20;43.20;34.62;60.52;;
68599;Laerm;18038;50.166;18.908;2024-03-08T08:53:28;42.14;34.64;57.91;;
68599;Laerm;18038;50.166;18.908;2024-03-08T08:56:39;47.13;34.53;64.59;;
68599;Laerm;18038;50.166;18.908;2024-03-08T08:59:46;43.40;35.26;55.98;;
68599;Laerm;18038;50.166;18.908;2024-03-08T09:02:55;45.34;34.48;62.91;;
68599;Laerm;18038;50.166;18.908;2024-03-08T09:06:03;45.45;34.63;62.03;;
68599;Laerm;18038;50.166;18.908;2024-03-08T09:09:14;41.88;34.01;51.65;;
68599;Laerm;18038;50.166;18.908;2024-03-08T09:12:25;48.14;35.34;63.65;;
68599;Laerm;18038;50.166;18.908;2024-03-08T09:15:33;41.72;34.84;57.21;;
68599;Laerm;18038;50.166;18.908;2024-03-08T09:18:41;44.89;34.53;61.85;;
68599;Laerm;18038;50.166;18.908;2024-03-08T09:21:49;48.02;34.49;66.13;;
68599;Laerm;18038;50.166;18.908;2024-03-08T09:24:57;44.98;34.55;60.26;;
68599;Laerm;18038;50.166;18.908;2024-03-08T09:28:08;42.24;34.99;54.96;;
68599;Laerm;18038;50.166;18.908;2024-03-08T09:31:17;46.71;34.56;63.21;;
68599;Laerm;18038;50.166;18.908;2024-03-08T09:34:25;44.69;34.85;62.10;;
68599;Laerm;18038;50.166;18.908;2024-03-08T09:37:41;49.89;35.32;70.82;;
68599;Laerm;18038;50.166;18.908;2024-03-08T09:40:49;45.73;34.97;63.12;;
68599;Laerm;18038;50.166;18.908;2024-03-08T09:44:00;42.48;35.22;57.05;;
68599;Laerm;18038;50.166;18.908;2024-03-08T09:47:12;41.34;34.33;54.49;;
68599;Laerm;18038;50.166;18.908;2024-03-08T09:50:21;42.13;34.08;54.14;;
68599;Laerm;18038;50.166;18.908;2024-03-08T09:53:31;39.54;33.57;54.21;;
68599;Laerm;18038;50.166;18.908;2024-03-08T09:56:39;40.68;34.58;51.10;;
68599;Laerm;18038;50.166;18.908;2024-03-08T09:59:51;39.55;33.79;51.26;;
68599;Laerm;18038;50.166;18.908;2024-03-08T10:03:01;41.57;33.86;59.46;;
68599;Laerm;18038;50.166;18.908;2024-03-08T10:06:10;39.84;33.78;53.28;;
68599;Laerm;18038;50.166;18.908;2024-03-08T10:09:18;39.73;33.51;54.69;;
68599;Laerm;18038;50.166;18.908;2024-03-08T10:12:26;40.88;33.01;57.80;;
68599;Laerm;18038;50.166;18.908;2024-03-08T10:15:36;39.83;33.32;50.47;;
68599;Laerm;18038;50.166;18.908;2024-03-08T10:18:45;38.15;32.77;46.80;;
68599;Laerm;18038;50.166;18.908;2024-03-08T10:21:53;40.14;32.93;51.85;;
68599;Laerm;18038;50.166;18.908;2024-03-08T10:25:05;38.30;32.34;49.29;;
68599;Laerm;18038;50.166;18.908;2024-03-08T10:28:15;39.17;33.04;51.81;;
68599;Laerm;18038;50.166;18.908;2024-03-08T10:31:25;41.08;32.52;61.04;;
68599;Laerm;18038;50.166;18.908;2024-03-08T10:34:33;40.03;32.22;54.67;;
68599;Laerm;18038;50.166;18.908;2024-03-08T10:37:46;37.89;31.92;48.28;;
68599;Laerm;18038;50.166;18.908;2024-03-08T10:40:54;38.17;31.99;50.09;;
68599;Laerm;18038;50.166;18.908;2024-03-08T10:44:17;39.86;32.36;51.28;;
68599;Laerm;18038;50.166;18.908;2024-03-08T10:47:38;41.84;32.45;58.30;;
68599;Laerm;18038;50.166;18.908;2024-03-08T10:50:49;40.29;32.22;53.15;;
68599;Laerm;18038;50.166;18.908;2024-03-08T10:53:59;38.44;31.92;51.98;;
68599;Laerm;18038;50.166;18.908;2024-03-08T10:57:12;41.66;32.68;56.58;;
68599;Laerm;18038;50.166;18.908;2024-03-08T11:00:21;39.35;31.98;52.85;;
68599;Laerm;18038;50.166;18.908;2024-03-08T11:03:48;41.12;33.31;52.44;;
68599;Laerm;18038;50.166;18.908;2024-03-08T11:07:02;41.77;34.50;53.13;;
68599;Laerm;18038;50.166;18.908;2024-03-08T11:10:20;44.55;32.43;61.47;;
68599;Laerm;18038;50.166;18.908;2024-03-08T11:13:34;37.97;32.38;46.17;;
68599;Laerm;18038;50.166;18.908;2024-03-08T11:16:44;37.88;32.18;49.02;;
68599;Laerm;18038;50.166;18.908;2024-03-08T11:19:56;44.06;32.01;63.08;;
68599;Laerm;18038;50.166;18.908;2024-03-08T11:23:07;42.05;32.94;61.08;;
68599;Laerm;18038;50.166;18.908;2024-03-08T11:26:19;40.32;32.29;54.40;;
68599;Laerm;18038;50.166;18.908;2024-03-08T11:29:35;38.81;31.95;50.19;;
68599;Laerm;18038;50.166;18.908;2024-03-08T11:32:45;40.01;32.81;55.15;;
68599;Laerm;18038;50.166;18.908;2024-03-08T11:36:03;43.98;33.24;59.33;;
68599;Laerm;18038;50.166;18.908;2024-03-08T11:39:16;39.68;32.56;52.14;;
68599;Laerm;18038;50.166;18.908;2024-03-08T11:42:25;40.65;32.06;55.18;;
68599;Laerm;18038;50.166;18.908;2024-03-08T11:45:34;41.25;33.00;54.27;;
68599;Laerm;18038;50.166;18.908;2024-03-08T11:48:48;44.83;31.98;66.10;;
68599;Laerm;18038;50.166;18.908;2024-03-08T11:51:58;41.14;32.40;56.09;;
68599;Laerm;18038;50.166;18.908;2024-03-08T11:55:08;45.47;32.67;61.06;;
68599;Laerm;18038;50.166;18.908;2024-03-08T11:58:17;40.20;32.59;53.92;;
68599;Laerm;18038;50.166;18.908;2024-03-08T12:01:25;40.49;31.92;59.16;;
68599;Laerm;18038;50.166;18.908;2024-03-08T12:04:33;38.26;32.07;49.44;;
68599;Laerm;18038;50.166;18.908;2024-03-08T12:07:44;40.25;31.96;54.27;;
68599;Laerm;18038;50.166;18.908;2024-03-08T12:10:51;43.25;32.02;62.43;;
68599;Laerm;18038;50.166;18.908;2024-03-08T12:14:04;51.28;33.31;70.50;;
68599;Laerm;18038;50.166;18.908;2024-03-08T12:17:12;39.10;32.32;47.36;;
68599;Laerm;18038;50.166;18.908;2024-03-08T12:20:23;38.47;32.57;45.27;;
68599;Laerm;18038;50.166;18.908;2024-03-08T12:23:33;39.59;33.43;55.47;;
68599;Laerm;18038;50.166;18.908;2024-03-08T12:26:41;38.73;32.74;51.60;;
68599;Laerm;18038;50.166;18.908;2024-03-08T12:29:49;39.28;32.64;53.49;;
68599;Laerm;18038;50.166;18.908;2024-03-08T12:33:00;41.92;32.18;56.18;;
68599;Laerm;18038;50.166;18.908;2024-03-08T12:36:15;39.25;32.35;52.28;;
68599;Laerm;18038;50.166;18.908;2024-03-08T12:39:27;38.91;32.32;54.16;;
68599;Laerm;18038;50.166;18.908;2024-03-08T12:42:34;40.31;32.13;51.72;;
68599;Laerm;18038;50.166;18.908;2024-03-08T12:45:43;41.18;32.03;55.85;;
68599;Laerm;18038;50.166;18.908;2024-03-08T12:48:51;40.32;32.35;56.65;;
68599;Laerm;18038;50.166;18.908;2024-03-08T12:51:59;40.95;32.18;60.19;;
68599;Laerm;18038;50.166;18.908;2024-03-08T12:55:09;43.80;32.59;61.93;;
68599;Laerm;18038;50.166;18.908;2024-03-08T12:58:17;41.27;32.14;58.46;;
68599;Laerm;18038;50.166;18.908;2024-03-08T13:01:26;41.03;32.14;56.22;;
68599;Laerm;18038;50.166;18.908;2024-03-08T13:04:35;40.81;32.27;60.36;;
68599;Laerm;18038;50.166;18.908;2024-03-08T13:07:42;40.17;31.92;52.13;;
68599;Laerm;18038;50.166;18.908;2024-03-08T13:10:54;39.57;32.06;47.85;;
68599;Laerm;18038;50.166;18.908;2024-03-08T13:14:03;41.19;32.64;54.12;;
68599;Laerm;18038;50.166;18.908;2024-03-08T13:17:12;40.74;32.80;56.25;;
68599;Laerm;18038;50.166;18.908;2024-03-08T13:20:19;40.81;33.17;51.08;;
68599;Laerm;18038;50.166;18.908;2024-03-08T13:23:38;40.52;32.53;52.55;;
68599;Laerm;18038;50.166;18.908;2024-03-08T13:26:52;40.79;32.45;58.79;;
68599;Laerm;18038;50.166;18.908;2024-03-08T13:30:00;43.48;32.36;61.31;;
68599;Laerm;18038;50.166;18.908;2024-03-08T13:33:07;42.59;32.98;63.97;;
68599;Laerm;18038;50.166;18.908;2024-03-08T13:36:16;40.25;33.47;50.86;;
68599;Laerm;18038;50.166;18.908;2024-03-08T13:39:25;41.18;32.56;51.42;;
68599;Laerm;18038;50.166;18.908;2024-03-08T13:42:37;40.07;32.85;52.29;;
68599;Laerm;18038;50.166;18.908;2024-03-08T13:45:46;39.98;33.04;46.60;;
68599;Laerm;18038;50.166;18.908;2024-03-08T13:48:54;41.73;32.66;59.77;;
68599;Laerm;18038;50.166;18.908;2024-03-08T13:52:06;42.20;32.94;58.00;;
68599;Laerm;18038;50.166;18.908;2024-03-08T13:55:14;40.81;32.81;55.65;;
68599;Laerm;18038;50.166;18.908;2024-03-08T13:58:26;41.06;32.41;55.76;;
68599;Laerm;18038;50.166;18.908;2024-03-08T14:01:34;39.49;32.35;49.53;;
68599;Laerm;18038;50.166;18.908;2024-03-08T14:04:42;42.64;32.53;56.03;;
68599;Laerm;18038;50.166;18.908;2024-03-08T14:07:50;41.33;32.97;57.37;;
68599;Laerm;18038;50.166;18.908;2024-03-08T14:10:58;41.16;33.04;52.97;;
68599;Laerm;18038;50.166;18.908;2024-03-08T14:14:18;40.63;33.30;50.74;;
68599;Laerm;18038;50.166;18.908;2024-03-08T14:17:27;41.11;32.60;52.75;;
68599;Laerm;18038;50.166;18.908;2024-03-08T14:20:36;41.56;34.33;54.37;;
68599;Laerm;18038;50.166;18.908;2024-03-08T14:23:43;41.14;32.56;57.29;;
68599;Laerm;18038;50.166;18.908;2024-03-08T14:26:53;40.95;32.69;50.04;;
68599;Laerm;18038;50.166;18.908;2024-03-08T14:30:08;41.18;32.62;56.75;;
68599;Laerm;18038;50.166;18.908;2024-03-08T14:33:16;39.38;33.13;46.47;;
68599;Laerm;18038;50.166;18.908;2024-03-08T14:36:23;40.30;33.01;56.61;;
68599;Laerm;18038;50.166;18.908;2024-03-08T14:39:31;42.05;33.07;56.46;;
68599;Laerm;18038;50.166;18.908;2024-03-08T14:42:41;42.28;32.83;60.49;;
68599;Laerm;18038;50.166;18.908;2024-03-08T14:45:53;41.90;33.21;51.58;;
68599;Laerm;18038;50.166;18.908;2024-03-08T14:49:00;43.06;32.38;54.39;;
68599;Laerm;18038;50.166;18.908;2024-03-08T14:52:08;41.77;32.90;55.31;;
68599;Laerm;18038;50.166;18.908;2024-03-08T14:55:31;39.61;32.89;54.24;;
68599;Laerm;18038;50.166;18.908;2024-03-08T14:58:40;40.79;33.23;50.57;;
68599;Laerm;18038;50.166;18.908;2024-03-08T15:01:50;39.91;33.05;48.84;;
68599;Laerm;18038;50.166;18.908;2024-03-08T15:04:59;41.83;33.86;53.87;;
68599;Laerm;18038;50.166;18.908;2024-03-08T15:08:13;39.95;33.55;53.19;;
68599;Laerm;18038;50.166;18.908;2024-03-08T15:11:25;38.62;33.66;47.71;;
68599;Laerm;18038;50.166;18.908;2024-03-08T15:14:33;39.81;33.14;49.41;;
68599;Laerm;18038;50.166;18.908;2024-03-08T15:17:44;40.42;33.08;49.58;;
68599;Laerm;18038;50.166;18.908;2024-03-08T15:20:52;41.66;32.93;54.49;;
68599;Laerm;18038;50.166;18.908;2024-03-08T15:24:00;40.53;33.90;52.17;;
68599;Laerm;18038;50.166;18.908;2024-03-08T15:27:08;40.87;34.27;52.52;;
68599;Laerm;18038;50.166;18.908;2024-03-08T15:30:16;40.36;34.26;50.05;;
68599;Laerm;18038;50.166;18.908;2024-03-08T15:33:29;40.33;34.13;46.66;;
68599;Laerm;18038;50.166;18.908;2024-03-08T15:36:37;39.77;33.27;53.75;;
68599;Laerm;18038;50.166;18.908;2024-03-08T15:39:47;41.60;32.71;52.91;;
68599;Laerm;18038;50.166;18.908;2024-03-08T15:42:56;40.85;33.25;50.56;;
68599;Laerm;18038;50.166;18.908;2024-03-08T15:46:04;41.52;34.70;51.11;;
68599;Laerm;18038;50.166;18.908;2024-03-08T15:49:15;39.80;33.23;47.54;;
68599;Laerm;18038;50.166;18.908;2024-03-08T15:52:23;38.77;32.99;45.32;;
68599;Laerm;18038;50.166;18.908;2024-03-08T15:55:32;41.75;33.32;52.48;;
68599;Laerm;18038;50.166;18.908;2024-03-08T15:58:39;40.05;33.30;47.50;;
68599;Laerm;18038;50.166;18.908;2024-03-08T16:01:48;51.06;33.58;71.57;;
68599;Laerm;18038;50.166;18.908;2024-03-08T16:04:58;45.80;33.65;71.64;;
68599;Laerm;18038;50.166;18.908;2024-03-08T16:08:10;43.35;33.69;63.78;;
68599;Laerm;18038;50.166;18.908;2024-03-08T16:11:19;40.59;33.57;48.25;;
68599;Laerm;18038;50.166;18.908;2024-03-08T16:14:28;41.12;33.17;51.69;;
68599;Laerm;18038;50.166;18.908;2024-03-08T16:17:35;40.35;32.92;52.71;;
68599;Laerm;18038;50.166;18.908;2024-03-08T16:20:50;40.21;33.34;52.75;;
68599;Laerm;18038;50.166;18.908;2024-03-08T16:23:58;41.09;34.56;51.61;;
68599;Laerm;18038;50.166;18.908;2024-03-08T16:27:06;40.65;33.45;50.40;;
68599;Laerm;18038;50.166;18.908;2024-03-08T16:30:13;40.94;33.38;48.97;;
68599;Laerm;18038;50.166;18.908;2024-03-08T16:33:24;41.92;33.74;49.97;;
68599;Laerm;18038;50.166;18.908;2024-03-08T16:36:34;39.88;33.27;49.43;;
68599;Laerm;18038;50.166;18.908;2024-03-08T16:39:45;50.72;33.19;69.19;;
68599;Laerm;18038;50.166;18.908;2024-03-08T16:42:52;42.22;34.28;48.23;;
68599;Laerm;18038;50.166;18.908;2024-03-08T16:46:01;43.74;35.83;50.37;;
68599;Laerm;18038;50.166;18.908;2024-03-08T16:49:08;41.28;33.15;51.56;;
68599;Laerm;18038;50.166;18.908;2024-03-08T16:52:20;41.17;33.76;47.82;;
68599;Laerm;18038;50.166;18.908;2024-03-08T16:55:30;41.53;34.39;48.66;;
68599;Laerm;18038;50.166;18.908;2024-03-08T16:58:49;43.61;35.35;51.73;;
68599;Laerm;18038;50.166;18.908;2024-03-08T17:01:57;40.97;34.30;49.71;;
68599;Laerm;18038;50.166;18.908;2024-03-08T17:05:06;42.97;35.85;52.11;;
68599;Laerm;18038;50.166;18.908;2024-03-08T17:08:16;44.68;35.00;55.26;;
68599;Laerm;18038;50.166;18.908;2024-03-08T17:11:24;42.49;35.36;49.94;;
68599;Laerm;18038;50.166;18.908;2024-03-08T17:14:33;41.51;33.91;50.22;;
68599;Laerm;18038;50.166;18.908;2024-03-08T17:17:44;40.22;34.10;49.89;;
68599;Laerm;18038;50.166;18.908;2024-03-08T17:20:53;43.39;35.01;56.96;;
68599;Laerm;18038;50.166;18.908;2024-03-08T17:24:05;41.14;33.66;49.75;;